AirNav   Air Wisconsin Up To $57,000 Bonus
 
 1389 users online  

15NY Peninsula Hospital Center Heliport
Far Rockaway, New York, USA

GOING TO FAR ROCKAWAY?


FAA INFORMATION EFFECTIVE 10 OCTOBER 2019

Location

FAA Identifier: 15NY
Lat/Long: 40-35-36.9100N 073-46-59.4300W
40-35.615167N 073-46.990500W
40.5935861,-73.7831750
(estimated)
Elevation: 0 ft. / 0 m (estimated)
Variation: 13W (1985)
Time zone: UTC -4 (UTC -5 during Standard Time)
Zip code: 11691

Heliport Operations

Heliport use: Private use, MEDICAL USE.
Activation date: 07/1990
Control tower: no
ARTCC: NEW YORK CENTER
FSS: NEW YORK FLIGHT SERVICE STATION
Attendance: CONTINUOUS
Wind indicator: yes
Segmented circle: no
Lights: FOR PERIMETER AND FLOOD LGTS CALL 718-945-7100, EXTN 700.

Heliport Communications

WX ASOS at JFK (2.8 nm N): PHONE 718-656-0956
WX ASOS at LGA (12 nm N): PHONE 718-672-6317
WX AWOS-3PT at JRB (12 nm NW): 128.175 (212-425-1534)
WX ASOS at EWR (19 nm W): PHONE 973-621-2892
WX ASOS at FRG (19 nm NE): PHONE 631-752-8129
WX ASOS at TEB (20 nm NW): 132.025 (201-393-0855)

Nearby radio navigation aids

VOR radial/distance  VOR name  Freq  Var
JFKr205/2.4KENNEDY VOR/DME115.9012W
CRIr114/5.2CANARSIE VOR/DME112.3011W
LGAr173/12.1LA GUARDIA VOR/DME113.1012W
TEBr151/19.9TETERBORO VOR/DME108.4011W
COLr056/24.1COLTS NECK VOR/DME115.4011W
DPKr253/24.8DEER PARK VOR/DME117.7012W

 
NDB name  Hdg/Dist  Freq  Var  ID
BABYLON269/18.827514WBBN -... -... -.
CHATHAM120/30.725413WCAT -.-. .- -

Heliport Services

Runway Information

Helipad H1

Dimensions: 50 x 50 ft. / 15 x 15 m
Surface: asphalt
Runway edge lights: PERI
AND FLOOD LGTS.
Latitude: 40-35.615167N
Longitude: 073-46.990500W
Elevation: 0.0 ft.
Traffic pattern: leftleft

Heliport Ownership and Management from official FAA records

Ownership: Privately-owned
Owner: PENINSULA HOSPITAL CENTER
51-15 BEACH CHANNEL DR
FAR ROCKAWAY, NY 11691
Phone 718-945-7100
Manager: ROBERT V. LEVINE, PRES / CEO
51-15 BEACH CHANNEL DR
FAR ROCKAWAY, NY 11691
Phone 718-945-7100

Additional Remarks

A52-H1 45' CHIMNEY 100' EAST OF PAD.
FOR CD CTC NEW YORK APCH AT 516-683-2962.

Instrument Procedures

There are no published instrument procedures at 15NY.

Some nearby airports with instrument procedures:

KJFK - John F Kennedy International Airport (3 nm N)
KLGA - LaGuardia Airport (12 nm N)
KJRB - Downtown Manhattan/Wall Street Heliport (12 nm NW)
6N5 - East 34th Street Heliport (12 nm NW)
KJRA - West 30th St Heliport (14 nm NW)
KEWR - Newark Liberty International Airport (19 nm W)
KFRG - Republic Airport (19 nm NE)
KTEB - Teterboro Airport (20 nm NW)
 
Loc | Ops | Rwys | IFR | FBO | Links
Com | Nav | Svcs | Stats | Notes
Area around 15NY (Peninsula Hospital Center Heliport)
 
Road maps at: MapQuest Bing Google
 
Aerial photo
No photo
 
Sectional chart

 
Airport distance calculator
Flying to Peninsula Hospital Center Heliport? Find the distance to fly.

From to 15NY

Sunrise and sunset
Times for 14-Oct-2019
 Local
(UTC-4)
 Zulu
(UTC)
Morning civil twilight06:3910:39
Sunrise07:0611:06
Sunset18:1622:16
Evening civil twilight18:4422:44

Current date and time
Zulu (UTC)  14-Oct-2019 17:01:21
Local (UTC-4)  14-Oct-2019 13:01:21
 
METAR
KJFK 
3nm N 
141651Z 19010KT 10SM FEW035 FEW250 19/13 A2998 RMK AO2 SLP150 T01890128
KJRB 
12nm NW 
141656Z AUTO 23006KT 9SM CLR 21/12 A2997 RMK AO2 SLP148 T02060122
KLGA 
12nm N 
141651Z VRB04KT 10SM FEW030 FEW250 20/10 A2995 RMK AO2 SLP142 T02000100
KNYC 
14nm NW 
141651Z AUTO 10SM CLR 20/10 A2998 RMK AO2 SLP143 T02000100 $
KEWR 
18nm W 
141651Z 24007KT 10SM FEW039 FEW250 21/11 A2996 RMK AO2 SLP144 T02060106 $
KFRG 
19nm NE 
141653Z 21008KT 10SM CLR 20/12 A2996 RMK AO2 SLP144 T02000122
TAF
KJFK 
3nm N 
141542Z 1416/1518 23009KT P6SM SKC FM150200 30009KT P6SM SKC FM150500 33008KT P6SM SKC FM151600 26008KT P6SM SKC
KLGA 
12nm N 
141542Z 1416/1518 24009KT P6SM SKC FM150200 30009KT P6SM SKC FM150500 34008KT P6SM SKC FM151600 26007KT P6SM SKC
KEWR 
18nm W 
141542Z 1416/1518 25008KT P6SM SKC FM150200 30008KT P6SM SKC FM150500 34006KT P6SM SKC FM151600 28006KT P6SM SKC
NOTAMs
Click for the latest NOTAMs
NOTAMs are issued by the DoD/FAA and will open in a separate window not controlled by AirNav.

 

 
 

Would you like to see your business listed on this page?

 If your business provides an interesting product or service to pilots, flight crews, aircraft, or users of the Peninsula Hospital Center Heliport, you should consider listing it here.  To start the listing process, click on the button below
 
Add a business
 

Other Pages about Peninsula Hospital Center Heliport

Update a link
 
Copyright © AirNav, LLC. All rights reserved. Privacy Policy  Contact